Tiempo atmosférico en la estación meteorológica de Cubillas de Rueda, León (916 m.)

Fecha
DESCASC
Temp. máxima en grados centígrados (hora)
DESCASC
Temp. mínima en grados centígrados (hora)
DESCASC
Temp. media en grados centígrados
DESCASC
Racha de viento máxima en m/sg (hora)
DESCASC
Velocidad máxima media en intervalos de 10 minutos(hora)
DESCASC
Precipitaciones diarias en mm
DESCASC
Precipitaciones de 00:00 a 06:00 en mm
DESCASC
Precipitaciones de 06:00 a 12:00 en mm
DESCASC
Precipitaciones de 12:00 a 18:00 en mm
DESCASC
Precipitaciones de 18:00 a 24:00 en mm
DESCASC
14-12-2017 11.5 (15:00) 4 (23:59) 7.8 9.44 (15:10) 5.56 (15:10) 7.4 0.8 6.6 0 0
13-12-2017 6.4 (19:30) -2.1 (00:30) 2.2 6.94 (22:30) 4.17 (22:40) 0 0 0 0 0
12-12-2017 6 (15:20) -5.1 (08:30) 0.5 6.94 (15:10) 3.61 (14:50) 0.4 0 0.4 0 0
11-12-2017 5.9 (00:00) -1.1 (21:20) 2.4 14.17 (00:10) 6.94 (00:10) 3.2 3.2 0 0 0
10-12-2017 9.6 (15:30) 5.9 (00:00) 7.8 23.61 (23:10) 14.17 (23:10) 26 0 2.4 6.6 17
09-12-2017 9 (19:00) 0.6 (00:00) 4.8 9.72 (23:40) 6.39 (23:40) 0.6 0.2 0.2 0 0.2
08-12-2017 9 (15:50) 2.4 (00:00) 5.7 4.17 (18:00) 2.5 (18:00) 0.8 0.2 0 0.2 0.4
07-12-2017 5.2 (14:50) -2.4 (-00:0) 1.4 3.61 (04:10) 1.67 (13:30) 1.6 0 0 1.2 0.4
06-12-2017 3.6 (14:40) -9 (-00:0) -2.7 4.17 (15:40) 3.06 (15:40) 0 0 0 0 0
05-12-2017 8.7 (15:40) -5.3 (-00:0) 1.7 4.44 (07:30) 3.06 (10:10) 0 0 0 0 0
04-12-2017 8.5 (15:40) -6.2 (-00:0) 1.2 3.89 (15:50) 2.22 (14:50) 0 0 0 0 0
03-12-2017 6.9 (16:10) -5.9 (-00:0) 0.5 5.83 (13:20) 3.61 (13:20) 0 0 0 0 0
02-12-2017 5.4 (15:20) -5.2 (-00:0) 0.1 8.61 (12:50) 5.56 (17:10) 0 0 0 0 0
01-12-2017 3.3 (13:30) -2.7 (-00:0) 0.3 13.89 (15:50) 8.33 (14:20) 2 0 1.4 0.6 0
30-11-2017 6.9 (14:00) -7.3 (-00:0) -0.2 7.22 (12:10) 4.72 (15:50) 0 0 0 0 0
29-11-2017 6.6 (14:10) -6 (-00:0) 0.3 8.89 (12:50) 6.11 (13:10) 0.2 0 0.2 0 0
28-11-2017 7 (15:30) -6.5 (-00:0) 0.3 4.17 (14:40) 2.5 (14:40) 0 0 0 0 0
27-11-2017 8.6 (15:10) -6 (-00:0) 1.3 4.44 (14:30) 2.5 (15:30) 0.2 0 0.2 0 0
26-11-2017 8.2 (15:30) -6.3 (-00:0) 0.9 3.89 (15:40) 2.5 (17:10) 0 0 0 0 0
25-11-2017 10.5 (15:10) -2.5 (-00:0) 4 6.94 (17:00) 4.72 (17:00) 1 1 0 0 0
24-11-2017 11.1 (16:30) 7.6 (00:00) 9.4 10 (01:50) 5.28 (01:50) 14.2 5 2 0.8 6.4
23-11-2017 13.5 (13:00) 7.8 (00:00) 10.7 8.89 (17:50) 5.28 (18:20) 0 0 0 0 0
22-11-2017 13.6 (16:10) -4 (-00:0) 4.8 10.83 (20:50) 5 (20:50) 0 0 0 0 0
21-11-2017 14.7 (15:20) -5.3 (-00:0) 4.7 4.72 (15:30) 2.5 (13:30) 0 0 0 0 0
20-11-2017 15.3 (15:10) -3.8 (-00:0) 5.8 5 (14:30) 3.06 (14:20) 0 0 0 0 0
19-11-2017 16.5 (14:50) -4 (-00:0) 6.3 4.44 (15:30) 2.22 (15:30) 0 0 0 0 0
18-11-2017 16.3 (15:30) -2.9 (-00:0) 6.7 4.44 (14:20) 2.22 (10:00) 0 0 0 0 0
17-11-2017 17.8 (15:00) -0.5 (-00:0) 8.6 4.44 (14:20) 2.5 (10:30) 0 0 0 0 0

Gráficas

Temp. máximas Temp. mínimas Temp. medias Precipitaciones Rachas de viento máximas Velocidades máximas media en intervalos de 10 minutos

Datos horarios

Fecha y hora oficial Temperatura (ºC) Velocidad del viento (km/h) Dirección del viento Racha (km/h) Dirección de racha Precipitación (mm) Presión (hPa) Tendencia (hPa) Humedad (%)
2017-12-16 23:00:00 -3.6 0 Calma 8 Oeste 0 -- -- 89
2017-12-16 22:00:00 -2.5 0 Calma 6 Este 0 -- -- 88
2017-12-16 21:00:00 -0.1 4 Norte 10 Norte 0 -- -- 81
2017-12-16 20:00:00 -0.2 6 Nordeste 12 Norte 0 -- -- 81
2017-12-16 19:00:00 1.3 5 Norte 18 Norte 0 -- -- 76
2017-12-16 18:00:00 3 9 Norte 24 Norte 0 -- -- 68
2017-12-16 17:00:00 4.8 12 Norte 31 Noroeste 0 -- -- 61
2017-12-16 16:00:00 5.8 14 Norte 30 Norte 0 -- -- 60
2017-12-16 15:00:00 5.7 19 Norte 34 Noroeste 0 -- -- 59
2017-12-16 14:00:00 5.8 14 Norte 25 Noroeste 0 -- -- 67
2017-12-16 13:00:00 5 13 Noroeste 23 Noroeste 0 -- -- 67
2017-12-16 12:00:00 3.9 14 Noroeste 23 Noroeste 0 -- -- 73
2017-12-16 11:00:00 1.7 4 Sudoeste 7 Sudoeste 0 -- -- 88
2017-12-16 10:00:00 -1.3 0 Calma 5 Sur 0 -- -- 98
2017-12-16 09:00:00 -3.8 5 Nordeste 8 Nordeste 0 -- -- 96
2017-12-16 08:00:00 -3.5 3 Nordeste 8 Este 0 -- -- 96
2017-12-16 07:00:00 -3.2 2 Noroeste 6 Este 0 -- -- 97
2017-12-16 06:00:00 -4 0 Calma 5 Este 0 -- -- 95
2017-12-16 05:00:00 -3.9 2 Sur 4 Sur 0 -- -- 95
2017-12-16 04:00:00 -3.2 0 Calma 4 Nordeste 0 -- -- 96
2017-12-16 03:00:00 -4 0 Calma 5 Oeste 0 -- -- 94
2017-12-16 02:00:00 -3.2 0 Calma 4 Sudoeste 0 -- -- 95
2017-12-16 01:00:00 -3.1 0 Calma 6 Oeste 0 -- -- 94
2017-12-16 00:00:00 -2.6 3 Sur 5 Sudoeste 0 -- -- 94
2017-12-15 23:00:00 -2.3 3 Este 5 Este 0 -- -- 94
2017-12-15 22:00:00 -1.9 0 Calma 5 Noroeste 0 -- -- 90
2017-12-15 21:00:00 -0.3 3 Norte 14 Norte 0 -- -- 88
2017-12-15 20:00:00 -0.3 0 Calma 6 Noroeste 0 -- -- 86
2017-12-15 19:00:00 1.2 3 Noroeste 10 Noroeste 0 -- -- 81
2017-12-15 18:00:00 3.6 5 Noroeste 17 Noroeste 0 -- -- 71
2017-12-15 17:00:00 5.8 8 Norte 22 Oeste 0 -- -- 63
2017-12-15 16:00:00 5.9 12 Noroeste 18 Noroeste 0 -- -- 58
2017-12-15 15:00:00 5.4 11 Noroeste 25 Norte 0 -- -- 59
2017-12-15 14:00:00 4.8 14 Norte 24 Norte 0 -- -- 62
2017-12-15 13:00:00 5.2 9 Noroeste 22 Norte 0 -- -- 68
2017-12-15 12:00:00 4.3 15 Norte 23 Norte 0 -- -- 74
2017-12-15 11:00:00 1.9 2 Este 9 Oeste 0 -- -- 94
2017-12-15 10:00:00 -0.4 0 Calma 5 Nordeste 0 -- -- 96
2017-12-15 09:00:00 -0.7 4 Nordeste 6 Nordeste 0 -- -- 95
2017-12-15 08:00:00 -1.1 5 Nordeste 15 Norte 0 -- -- 95
2017-12-15 07:00:00 -0.5 7 Nordeste 10 Norte 0 -- -- 95
2017-12-15 06:00:00 0.8 2 Nordeste 12 Noroeste 0 -- -- 94
2017-12-15 05:00:00 1.5 5 Nordeste 12 Sur 0 -- -- 91
2017-12-15 04:00:00 2.8 5 Sudeste 10 Sudeste 0 -- -- 94
2017-12-15 03:00:00 1.2 2 Este 8 Sudoeste 0 -- -- 93
2017-12-15 02:00:00 2.5 4 Sudoeste 18 Sudoeste 0 -- -- 85
2017-12-15 01:00:00 3.3 4 Oeste 17 Sudoeste 0 -- -- 81
2017-12-15 00:00:00 4 5 Sudoeste 23 Oeste 0 -- -- 84
2017-12-14 23:00:00 5.3 15 Sudoeste 28 Oeste 0 -- -- 84
2017-12-14 22:00:00 6.4 15 Oeste 30 Sudoeste 0 -- -- 83
2017-12-14 21:00:00 7.4 13 Oeste 28 Oeste 0 -- -- 84
2017-12-14 20:00:00 8.1 15 Oeste 25 Oeste 0 -- -- 88
2017-12-14 19:00:00 8.5 10 Sudoeste 22 Sudoeste 0 -- -- 92
2017-12-14 18:00:00 9.2 7 Sudoeste 23 Sudoeste 0 -- -- 93
2017-12-14 17:00:00 10.5 13 Sudoeste 27 Sudoeste 0 -- -- 87
2017-12-14 16:00:00 10.7 16 Oeste 34 Oeste 0 -- -- 84
2017-12-14 15:00:00 11.5 18 Oeste 31 Oeste 0 -- -- 83
2017-12-14 14:00:00 10.8 14 Oeste 28 Oeste 0 -- -- 90
2017-12-14 13:00:00 9.2 9 Oeste 19 Oeste 0 -- -- 99
2017-12-14 12:00:00 8.2 5 Oeste 12 Oeste 0 -- -- 99
2017-12-14 11:00:00 7.3 3 Oeste 5 Sudoeste 0 -- -- 99
2017-12-14 10:00:00 6.9 0 Calma 5 Noroeste 0 -- -- 99
2017-12-14 09:00:00 6.7 2 Sudeste 15 Nordeste 1 -- -- 99
2017-12-14 08:00:00 6.5 10 Nordeste 14 Norte 3.2 -- -- 99
2017-12-14 07:00:00 7.7 8 Oeste 14 Oeste 2.4 -- -- 100
2017-12-14 06:00:00 7.6 6 Oeste 14 Noroeste 0 -- -- 99
2017-12-14 05:00:00 6.2 0 Calma 3 Sudoeste 0 -- -- 99
2017-12-14 04:00:00 6.1 0 Calma 6 Oeste 0.2 -- -- 98
2017-12-14 03:00:00 6.2 3 Sudoeste 10 Oeste 0.6 -- -- 99
2017-12-14 02:00:00 6.1 5 Sudoeste 15 Sudoeste 0 -- -- 98
2017-12-14 01:00:00 6.2 8 Sudoeste 21 Sudoeste 0 -- -- 98
2017-12-14 00:00:00 6.1 12 Sudoeste 23 Sudoeste 0 -- -- 97
2017-12-13 23:00:00 6.1 11 Sudoeste 25 Sudoeste 0 -- -- 97
2017-12-13 22:00:00 6 12 Sudoeste 22 Sudoeste 0 -- -- 96
2017-12-13 21:00:00 6.3 12 Sudoeste 22 Sudoeste 0 -- -- 95
2017-12-13 20:00:00 6.4 14 Sudoeste 24 Sudoeste 0 -- -- 97
2017-12-13 19:00:00 6 12 Sudoeste 19 Sudoeste 0 -- -- 99
2017-12-13 18:00:00 3.9 4 Noroeste 6 Noroeste 0 -- -- 99
2017-12-13 17:00:00 3.5 3 Nordeste 8 Norte 0 -- -- 99
2017-12-13 16:00:00 3.6 4 Nordeste 10 Nordeste 0 -- -- 99
2017-12-13 15:00:00 3.4 3 Norte 6 Norte 0 -- -- 99
2017-12-13 14:00:00 3 2 Noroeste 6 Oeste 0 -- -- 99
2017-12-13 13:00:00 2.3 0 Calma 6 Oeste 0 -- -- 99
2017-12-13 12:00:00 1.8 0 Calma 4 Norte 0 -- -- 99
2017-12-13 11:00:00 1.3 0 Calma 3 Nordeste 0 -- -- 99
2017-12-13 10:00:00 0.9 2 Norte 4 Norte 0 -- -- 98
2017-12-13 09:00:00 0.9 0 Calma 5 Sudeste 0 -- -- 98
2017-12-13 08:00:00 0.4 3 Sudeste 6 Nordeste 0 -- -- 98
2017-12-13 07:00:00 0.3 0 Calma 4 Norte 0 -- -- 97
2017-12-13 06:00:00 0.2 2 Norte 6 Sur 0 -- -- 97
2017-12-13 05:00:00 0.5 4 Sur 6 Sur 0 -- -- 98
2017-12-13 04:00:00 -0.3 2 Este 8 Norte 0 -- -- 97
2017-12-13 03:00:00 -0.5 2 Sudeste 4 Nordeste 0 -- -- 97
2017-12-13 02:00:00 -1.4 3 Nordeste 5 Nordeste 0 -- -- 97
2017-12-13 01:00:00 -1.8 0 Calma 3 Sudeste 0 -- -- 96
2017-12-13 00:00:00 -1.7 0 Calma 4 Sudoeste 0 -- -- 95
2017-12-12 23:00:00 -0.9 4 Sudoeste 6 Sudoeste 0 -- -- 95
2017-12-12 22:00:00 -0.9 3 Sudoeste 7 Sudoeste 0 -- -- 93
2017-12-12 21:00:00 0.2 3 Sudoeste 7 Sudoeste 0 -- -- 92
2017-12-12 20:00:00 0.3 5 Sudoeste 8 Sudoeste 0 -- -- 92
2017-12-12 19:00:00 1.4 3 Sudoeste 8 Oeste 0 -- -- 85
2017-12-12 18:00:00 3.7 3 Oeste 16 Oeste 0 -- -- 78
2017-12-12 17:00:00 4.7 8 Oeste 21 Noroeste 0 -- -- 73
2017-12-12 16:00:00 5.5 11 Noroeste 25 Oeste 0 -- -- 69
2017-12-12 15:00:00 5.8 9 Noroeste 19 Oeste 0 -- -- 67
2017-12-12 14:00:00 5.2 10 Noroeste 18 Noroeste 0 -- -- 73
2017-12-12 13:00:00 4.6 8 Noroeste 14 Noroeste 0 -- -- 78
2017-12-12 12:00:00 2.5 3 Noroeste 7 Norte 0.2 -- -- 90
2017-12-12 11:00:00 0.3 5 Nordeste 8 Norte 0.2 -- -- 95
2017-12-12 10:00:00 -2.1 0 Calma 5 Nordeste 0 -- -- 98
2017-12-12 09:00:00 -4.9 0 Calma 4 Este 0 -- -- 96
2017-12-12 08:00:00 -4.4 0 Calma 3 Este 0 -- -- 95
2017-12-12 07:00:00 -3.9 0 Calma 2 Este 0 -- -- 95
2017-12-12 06:00:00 -2.5 0 Calma 3 Este 0 -- -- 97
2017-12-12 05:00:00 -2.3 0 Calma 4 Sudeste 0 -- -- 96
2017-12-12 04:00:00 -1.1 0 Calma 4 Oeste 0 -- -- 97
2017-12-12 03:00:00 -1.3 2 Sudoeste 10 Oeste 0 -- -- 97
2017-12-12 02:00:00 -0.9 6 Oeste 8 Sudoeste 0 -- -- 97
2017-12-12 01:00:00 -0.7 3 Sudoeste 9 Oeste 0 -- -- 96
2017-12-12 00:00:00 -0.6 3 Sudoeste 8 Oeste 0 -- -- 95
2017-12-11 23:00:00 -0.5 0 Calma 5 Oeste 0 -- -- 94
2017-12-11 22:00:00 -0.9 0 Calma 10 Oeste 0 -- -- 94
2017-12-11 21:00:00 -0.8 0 Calma 24 Norte 0 -- -- 92
2017-12-11 20:00:00 -0.4 12 Norte 22 Norte 0 -- -- 86
2017-12-11 19:00:00 0.2 8 Noroeste 28 Noroeste 0 -- -- 84
2017-12-11 18:00:00 1.8 23 Noroeste 40 Norte 0 -- -- 79
2017-12-11 17:00:00 3.4 14 Norte 31 Noroeste 0 -- -- 82
2017-12-11 16:00:00 4.2 13 Noroeste 31 Noroeste 0 -- -- 76
2017-12-11 15:00:00 4.4 14 Noroeste 31 Oeste 0 -- -- 83
2017-12-11 14:00:00 4.7 14 Oeste 37 Oeste 0 -- -- 79
2017-12-11 13:00:00 4.5 19 Oeste 35 Oeste 0 -- -- 85
2017-12-11 12:00:00 3 13 Sudoeste 25 Sudoeste 0 -- -- 88
2017-12-11 11:00:00 2.2 10 Sudoeste 29 Oeste 0 -- -- 92
2017-12-11 10:00:00 1.3 18 Oeste 33 Oeste 0 -- -- 94
2017-12-11 09:00:00 0.8 14 Oeste 28 Sudoeste 0 -- -- 97
2017-12-11 08:00:00 1.1 7 Sudoeste 16 Sudoeste 0 -- -- 97
2017-12-11 07:00:00 1.7 4 Sudoeste 16 Sudoeste 0 -- -- 97
2017-12-11 06:00:00 2.2 9 Sudoeste 18 Sudoeste 0.2 -- -- 97
2017-12-11 05:00:00 2.5 11 Sudoeste 32 Oeste 0 -- -- 97
2017-12-11 04:00:00 3 17 Sudoeste 34 Sudoeste 0 -- -- 97
2017-12-11 03:00:00 3.4 13 Oeste 37 Sudoeste 0 -- -- 96
2017-12-11 02:00:00 3.6 16 Oeste 43 Oeste 0.2 -- -- 95
2017-12-11 01:00:00 4.3 19 Oeste 51 Oeste 2.8 -- -- 93
2017-12-11 00:00:00 5.9 30 Oeste 85 Sur 6.6 -- -- 90
2017-12-10 23:00:00 8.7 43 Sudoeste 82 Sur 1.6 -- -- 96
2017-12-10 22:00:00 8.5 36 Sudoeste 69 Sudoeste 2.2 -- -- 96
2017-12-10 21:00:00 8.5 40 Sudoeste 70 Sudoeste 3.2 -- -- 96
2017-12-10 20:00:00 8.7 27 Sudoeste 55 Sudoeste 2.2 -- -- 96
2017-12-10 19:00:00 8.9 30 Sudoeste 58 Sudoeste 1.2 -- -- 95
2017-12-10 18:00:00 9.1 26 Sudoeste 52 Sudoeste 1 -- -- 95
2017-12-10 17:00:00 9.3 28 Sudoeste 64 Sudoeste 2.2 -- -- 96
2017-12-10 16:00:00 9.5 31 Sudoeste 61 Sur 1 -- -- 94
2017-12-10 15:00:00 9.5 28 Sudoeste 57 Sudoeste 1 -- -- 96
2017-12-10 14:00:00 9.1 28 Sudoeste 48 Sudoeste 0.4 -- -- 97
2017-12-10 13:00:00 8.8 31 Sudoeste 54 Sudoeste 1 -- -- 97
2017-12-10 12:00:00 8.6 25 Sudoeste 50 Sur 0.6 -- -- 97
2017-12-10 11:00:00 8.1 21 Sudoeste 40 Sudoeste 1 -- -- 98
2017-12-10 10:00:00 7.7 19 Sudoeste 36 Sudoeste 0.8 -- -- 97
2017-12-10 09:00:00 7.5 20 Sudoeste 35 Sudoeste 0 -- -- 96
2017-12-10 08:00:00 7.2 8 Sudoeste 19 Sudoeste 0 -- -- 94
2017-12-10 07:00:00 6.9 8 Sudoeste 19 Sudoeste 0 -- -- 92
2017-12-10 06:00:00 6.9 7 Sudoeste 23 Sudoeste 0 -- -- 91
2017-12-10 05:00:00 7 14 Sudoeste 29 Sudoeste 0 -- -- 90
2017-12-10 04:00:00 6.5 10 Sudoeste 26 Oeste 0 -- -- 90
2017-12-10 03:00:00 6.5 10 Sudoeste 30 Oeste 0 -- -- 89
2017-12-10 02:00:00 7.5 12 Oeste 28 Oeste 0 -- -- 88
2017-12-10 01:00:00 7.5 11 Sudoeste 30 Oeste 0 -- -- 88
2017-12-10 00:00:00 8.1 18 Oeste 35 Sudoeste 0 -- -- 89
2017-12-09 23:00:00 8.4 18 Oeste 33 Oeste 0 -- -- 89
2017-12-09 22:00:00 9 20 Oeste 33 Oeste 0.2 -- -- 88
2017-12-09 21:00:00 8.8 15 Oeste 30 Oeste 0 -- -- 94
2017-12-09 20:00:00 8.8 12 Oeste 28 Oeste 0 -- -- 92
2017-12-09 19:00:00 9 17 Oeste 31 Oeste 0 -- -- 96
2017-12-09 18:00:00 7.9 13 Oeste 23 Sudoeste 0 -- -- 100
2017-12-09 17:00:00 6.3 3 Este 12 Oeste 0 -- -- 99
2017-12-09 16:00:00 6.5 5 Oeste 8 Sudoeste 0 -- -- 99
2017-12-09 15:00:00 5.6 3 Sudoeste 7 Sudoeste 0 -- -- 99
2017-12-09 14:00:00 5.2 0 Calma 5 Norte 0 -- -- 99
2017-12-09 13:00:00 4.8 3 Noroeste 6 Oeste 0 -- -- 99
2017-12-09 12:00:00 3.9 2 Norte 5 Noroeste 0.2 -- -- 99
2017-12-09 11:00:00 3 0 Calma 3 Norte 0 -- -- 99
2017-12-09 10:00:00 2.3 3 Nordeste 4 Nordeste 0 -- -- 99
2017-12-09 09:00:00 1.6 3 Nordeste 4 Norte 0 -- -- 99
2017-12-09 08:00:00 2 0 Calma 3 Sudoeste 0 -- -- 99
2017-12-09 07:00:00 1.5 0 Calma 3 Sudeste 0 -- -- 99
2017-12-09 06:00:00 1.1 0 Calma 5 Oeste 0 -- -- 99
2017-12-09 05:00:00 0.6 0 Calma 0 Calma 0 -- -- 99
2017-12-09 04:00:00 0.7 0 Calma 5 Este 0.2 -- -- 98
2017-12-09 03:00:00 1.4 4 Este 6 Este 0 -- -- 98
2017-12-09 02:00:00 2.3 2 Sur 4 Sudeste 0 -- -- 98
2017-12-09 01:00:00 2.8 2 Sudeste 5 Este 0 -- -- 98
2017-12-09 00:00:00 4.2 3 Nordeste 8 Nordeste 0 -- -- 98
2017-12-08 23:00:00 3.8 3 Nordeste 6 Este 0 -- -- 98
2017-12-08 22:00:00 3.4 3 Este 6 Nordeste 0 -- -- 95
2017-12-08 21:00:00 6.2 0 Calma 5 Este 0 -- -- 96
2017-12-08 20:00:00 6.5 0 Calma 9 Sudeste 0.2 -- -- 97
2017-12-08 19:00:00 6.7 5 Este 15 Este 0.2 -- -- 96
2017-12-08 18:00:00 7.2 9 Sudeste 15 Sudeste 0 -- -- 95
2017-12-08 17:00:00 8.2 3 Sudoeste 8 Sur 0.2 -- -- 95
2017-12-08 16:00:00 8.8 4 Oeste 7 Oeste 0 -- -- 96
2017-12-08 15:00:00 8 2 Sudoeste 6 Oeste 0 -- -- 99
2017-12-08 14:00:00 7 3 Sudoeste 5 Sudoeste 0 -- -- 99
2017-12-08 13:00:00 6.2 3 Oeste 5 Noroeste 0 -- -- 99
2017-12-08 12:00:00 5.3 0 Calma 5 Este 0 -- -- 99
2017-12-08 11:00:00 4.2 3 Norte 5 Norte 0 -- -- 99
2017-12-08 10:00:00 3.2 3 Nordeste 9 Nordeste 0 -- -- 99
2017-12-08 09:00:00 2.7 0 Calma 4 Nordeste 0 -- -- 98
2017-12-08 08:00:00 2.6 0 Calma 3 Nordeste 0 -- -- 98
2017-12-08 07:00:00 2.5 0 Calma 2 Sudoeste 0 -- -- 98
2017-12-08 06:00:00 2.4 0 Calma 3 Sudoeste 0 -- -- 98
2017-12-08 05:00:00 2.4 0 Calma 4 Oeste 0 -- -- 98
2017-12-08 04:00:00 2.4 3 Sudoeste 5 Sudoeste 0 -- -- 98
2017-12-08 03:00:00 2.4 0 Calma 8 Sudoeste 0 -- -- 97
2017-12-08 02:00:00 2.5 3 Sudoeste 5 Sudoeste 0.2 -- -- 97
2017-12-08 01:00:00 2.8 0 Calma 3 Oeste 0 -- -- 97
2017-12-08 00:00:00 2.8 0 Calma 2 Sur 0 -- -- 96
2017-12-07 23:00:00 2.7 0 Calma 2 Oeste 0 -- -- 96
2017-12-07 22:00:00 2.7 0 Calma 2 Nordeste 0.2 -- -- 96
2017-12-07 21:00:00 2.6 0 Calma 5 Sudoeste 0 -- -- 95
2017-12-07 20:00:00 2.5 3 Sudoeste 6 Sudoeste 0 -- -- 95
2017-12-07 19:00:00 2.3 0 Calma 4 Sudeste 0.2 -- -- 94
2017-12-07 18:00:00 2.9 3 Noroeste 6 Nordeste 0.2 -- -- 93
2017-12-07 17:00:00 3.2 0 Calma 8 Sudoeste 1 -- -- 90
2017-12-07 16:00:00 4 6 Sudoeste 11 Sudoeste 0 -- -- 80
2017-12-07 15:00:00 4.9 6 Sudoeste 12 Sudoeste 0 -- -- 73
2017-12-07 14:00:00 2.9 6 Sudoeste 10 Sudoeste 0 -- -- 85
2017-12-07 13:00:00 1.9 5 Sudoeste 8 Oeste 0 -- -- 91
2017-12-07 12:00:00 -0.2 2 Sudeste 6 Sur 0 -- -- 96
2017-12-07 11:00:00 -0.9 2 Sur 5 Sudoeste 0 -- -- 97
2017-12-07 10:00:00 -1.3 0 Calma 5 Oeste 0 -- -- 97
2017-12-07 09:00:00 -1.7 0 Calma 3 Sur 0 -- -- 97
2017-12-07 08:00:00 -1.8 3 Oeste 5 Sudoeste 0 -- -- 97
2017-12-07 07:00:00 -1.8 0 Calma 4 Sur 0 -- -- 97
2017-12-07 06:00:00 -2 0 Calma 3 Sur 0 -- -- 97
2017-12-07 05:00:00 -2.1 0 Calma 13 Oeste 0 -- -- 97
2017-12-07 04:00:00 -1.9 3 Este 7 Sudeste 0 -- -- 97
2017-12-07 03:00:00 -2.1 0 Calma 3 Sudeste 0 -- -- 97
2017-12-07 02:00:00 -2.2 0 Calma 3 Oeste 0 -- -- 97
2017-12-07 01:00:00 -2.3 0 Calma 3 Este 0 -- -- 97
2017-12-07 00:00:00 -2.4 0 Calma 5 Este 0 -- -- 97
2017-12-06 23:00:00 -2.4 0 Calma 3 Sudeste 0 -- -- 97
2017-12-06 22:00:00 -2.4 3 Sudeste 5 Este 0 -- -- 97
2017-12-06 21:00:00 -2.2 0 Calma 5 Este 0 -- -- 97
2017-12-06 20:00:00 -2 0 Calma 4 Sur 0 -- -- 97
2017-12-06 19:00:00 -2 2 Sur 4 Sudoeste 0 -- -- 96
2017-12-06 18:00:00 -1.6 0 Calma 6 Sudoeste 0 -- -- 95
2017-12-06 17:00:00 -0.8 4 Sudoeste 13 Sudoeste 0 -- -- 94
2017-12-06 16:00:00 0.5 8 Sudoeste 15 Sudoeste 0 -- -- 89
2017-12-06 15:00:00 2.9 9 Oeste 14 Sudoeste 0 -- -- 77
2017-12-06 14:00:00 2.3 6 Sudoeste 10 Sudoeste 0 -- -- 77
2017-12-06 13:00:00 0.3 6 Sudoeste 11 Oeste 0 -- -- 83
2017-12-06 12:00:00 -2.5 4 Sudoeste 9 Sudoeste 0 -- -- 90
2017-12-06 11:00:00 -3.8 0 Calma 0 Calma 0 -- -- 91
2017-12-06 10:00:00 -5.9 0 Calma 0 Calma 0 -- -- 95
2017-12-06 09:00:00 -8.9 0 Calma 4 Sudoeste 0 -- -- 91
2017-12-06 08:00:00 -8.9 0 Calma -- -- 0 -- -- 92
2017-12-06 07:00:00 -8.3 0 Calma 3 Este 0 -- -- 92
2017-12-06 06:00:00 -6.7 0 Calma 5 Este 0 -- -- 93
2017-12-06 05:00:00 -7.7 3 Nordeste 4 Nordeste 0 -- -- 92
2017-12-06 04:00:00 -7.4 2 Nordeste 5 Nordeste 0 -- -- 90
2017-12-06 03:00:00 -6.8 0 Calma 4 Nordeste 0 -- -- 92
2017-12-06 02:00:00 -6.6 0 Calma 4 Nordeste 0 -- -- 91
2017-12-06 01:00:00 -5.6 3 Nordeste 5 Nordeste 0 -- -- 92
2017-12-06 00:00:00 -5.3 2 Nordeste 6 Nordeste 0 -- -- 92
2017-12-05 23:00:00 -5 4 Nordeste 6 Este 0 -- -- 92
2017-12-05 22:00:00 -4.6 4 Este 5 Nordeste 0 -- -- 91
2017-12-05 21:00:00 -3.8 4 Nordeste 5 Este 0 -- -- 89
2017-12-05 20:00:00 -3.2 4 Este 5 Este 0 -- -- 88
2017-12-05 19:00:00 -0.6 3 Sudoeste 7 Sudoeste 0 -- -- 79
2017-12-05 18:00:00 4.6 5 Sudoeste 9 Sudoeste 0 -- -- 65
2017-12-05 17:00:00 7.9 5 Oeste 9 Oeste 0 -- -- 55
2017-12-05 16:00:00 8.6 4 Sudoeste 10 Oeste 0 -- -- 54
2017-12-05 15:00:00 8.2 3 Oeste 9 Oeste 0 -- -- 56
2017-12-05 14:00:00 6.3 4 Noroeste 10 Oeste 0 -- -- 62
2017-12-05 13:00:00 4 8 Oeste 10 Oeste 0 -- -- 75
2017-12-05 12:00:00 1.5 3 Noroeste 6 Noroeste 0 -- -- 80
2017-12-05 11:00:00 -1.4 3 Norte 15 Norte 0 -- -- 92
2017-12-05 10:00:00 -3.1 9 Nordeste 14 Nordeste 0 -- -- 97
2017-12-05 09:00:00 -2.9 6 Nordeste 14 Norte 0 -- -- 97
2017-12-05 08:00:00 -1.7 5 Nordeste 16 Nordeste 0 -- -- 97
2017-12-05 07:00:00 -1.8 10 Nordeste 14 Nordeste 0 -- -- 96
2017-12-05 06:00:00 -1.3 7 Nordeste 10 Nordeste 0 -- -- 95
2017-12-05 05:00:00 -1 3 Este 5 Este 0 -- -- 95
2017-12-05 04:00:00 -1.1 2 Este 8 Este 0 -- -- 95
2017-12-05 03:00:00 -2.1 4 Nordeste 8 Nordeste -- -- -- 96
2017-12-05 02:00:00 -3.2 9 Nordeste 13 Nordeste 0 -- -- 95
2017-12-05 01:00:00 -4 2 Este 9 Nordeste 0 -- -- 93
2017-12-05 00:00:00 -3.9 4 Nordeste 7 Nordeste 0 -- -- 92
2017-12-04 23:00:00 -3.3 2 Nordeste 9 Nordeste 0 -- -- 92
2017-12-04 22:00:00 -2.8 3 Este 6 Nordeste 0 -- -- 91
2017-12-04 21:00:00 -2.8 3 Nordeste 6 Este 0 -- -- 88
2017-12-04 20:00:00 -1 3 Nordeste 6 Sur 0 -- -- 86
2017-12-04 19:00:00 -0.7 2 Sur 5 Sudoeste 0 -- -- 81
2017-12-04 18:00:00 4.9 4 Sudoeste 8 Sudoeste 0 -- -- 65
2017-12-04 17:00:00 7.6 5 Sudoeste 13 Oeste 0 -- -- 58
2017-12-04 16:00:00 8.2 7 Sudoeste 14 Sudoeste 0 -- -- 56
2017-12-04 15:00:00 8.2 5 Oeste 13 Sudoeste 0 -- -- 56
2017-12-04 14:00:00 7.3 4 Noroeste 10 Oeste 0 -- -- 59
2017-12-04 13:00:00 6.6 6 Oeste 13 Sudoeste 0 -- -- 63
2017-12-04 12:00:00 4.2 2 Nordeste 9 Nordeste 0 -- -- 75
2017-12-04 11:00:00 1.3 7 Nordeste 10 Nordeste 0 -- -- 86
2017-12-04 10:00:00 -2.1 3 Nordeste 6 Nordeste 0 -- -- 96
2017-12-04 09:00:00 -6.1 4 Nordeste 9 Nordeste 0 -- -- 93
2017-12-04 08:00:00 -5.9 4 Nordeste 6 Nordeste 0 -- -- 93
2017-12-04 07:00:00 -6.1 4 Nordeste 6 Nordeste 0 -- -- 93
2017-12-04 06:00:00 -5.5 4 Nordeste 8 Nordeste 0 -- -- 92
2017-12-04 05:00:00 -5.4 4 Este 8 Este 0 -- -- 91
2017-12-04 04:00:00 -4.5 3 Este 9 Este 0 -- -- 94
2017-12-04 03:00:00 -4.2 4 Nordeste 10 Este 0 -- -- 94
2017-12-04 02:00:00 -4.3 3 Este 9 Nordeste 0 -- -- 92
2017-12-04 01:00:00 -4.3 4 Este 8 Este 0 -- -- 93
2017-12-04 00:00:00 -4.5 0 Calma 6 Este 0 -- -- 90
2017-12-03 23:00:00 -4.5 0 Calma 4 Este 0 -- -- 90
2017-12-03 22:00:00 -3.7 0 Calma 5 Sudoeste 0 -- -- 88
2017-12-03 21:00:00 -2.7 0 Calma 12 Sur 0 -- -- 86
2017-12-03 20:00:00 -1.6 4 Oeste 9 Sudoeste 0 -- -- 83
2017-12-03 19:00:00 0 5 Este 6 Este 0 -- -- 75
2017-12-03 18:00:00 3.9 5 Nordeste 11 Norte 0 -- -- 61
2017-12-03 17:00:00 6.3 5 Norte 14 Norte 0 -- -- 54
2017-12-03 16:00:00 6.7 9 Norte 17 Norte 0 -- -- 53
2017-12-03 15:00:00 6.6 10 Norte 21 Nordeste 0 -- -- 56
2017-12-03 14:00:00 5.8 12 Nordeste 21 Nordeste 0 -- -- 55
2017-12-03 13:00:00 5 4 Norte 9 Noroeste 0 -- -- 62
2017-12-03 12:00:00 4.3 2 Sudeste 6 Sudoeste 0 -- -- 65
2017-12-03 11:00:00 2.4 0 Calma 8 Sur 0 -- -- 72
2017-12-03 10:00:00 -1.7 2 Sudoeste 5 Sudeste 0 -- -- 95
2017-12-03 09:00:00 -5.7 0 Calma 4 Nordeste 0 -- -- 93
2017-12-03 08:00:00 -5.8 2 Este 8 Este 0 -- -- 92
2017-12-03 07:00:00 -4.7 3 Sudeste 6 Este 0 -- -- 93
2017-12-03 06:00:00 -5.2 3 Sur 7 Este 0 -- -- 92
2017-12-03 05:00:00 -4.8 0 Calma 5 Norte 0 -- -- 92
2017-12-03 04:00:00 -4 0 Calma 5 Este 0 -- -- 91
2017-12-03 03:00:00 -2.9 4 Este 7 Sudeste 0 -- -- 91
2017-12-03 02:00:00 -2.7 4 Este 8 Este 0 -- -- 89
2017-12-03 01:00:00 0.5 4 Norte 10 Norte 0 -- -- 83
2017-12-03 00:00:00 1.4 6 Noroeste 12 Noroeste 0 -- -- 80
2017-12-02 23:00:00 1.6 4 Norte 9 Noroeste 0 -- -- 81
2017-12-02 22:00:00 1.3 2 Noroeste 7 Norte 0 -- -- 82
2017-12-02 21:00:00 1.2 3 Noroeste 4 Oeste 0 -- -- 84
2017-12-02 20:00:00 1.9 0 Calma 8 Noroeste 0 -- -- 79
2017-12-02 19:00:00 2 2 Norte 17 Norte 0 -- -- 77
2017-12-02 18:00:00 2.4 12 Norte 28 Norte 0 -- -- 72
2017-12-02 17:00:00 3.9 19 Norte 28 Norte 0 -- -- 60
2017-12-02 16:00:00 4.9 13 Norte 30 Noroeste 0 -- -- 65
2017-12-02 15:00:00 5 15 Norte 27 Norte 0 -- -- 65
2017-12-02 14:00:00 5.1 12 Norte 24 Norte 0 -- -- 64
2017-12-02 13:00:00 4.7 18 Norte 31 Norte 0 -- -- 66
2017-12-02 12:00:00 3.7 3 Sudoeste 14 Noroeste 0 -- -- 73
2017-12-02 11:00:00 2 5 Norte 9 Noroeste 0 -- -- 81
2017-12-02 10:00:00 -0.5 3 Sudoeste 5 Sudoeste 0 -- -- 92
2017-12-02 09:00:00 -3.9 3 Sur 5 Sudoeste 0 -- -- 93
2017-12-02 08:00:00 -3.2 0 Calma 6 Sudoeste 0 -- -- 93
2017-12-02 07:00:00 -2.8 0 Calma 5 Sudoeste 0 -- -- 94
2017-12-02 06:00:00 -3.4 2 Sudoeste 6 Sur 0 -- -- 93
2017-12-02 05:00:00 -3.4 3 Sudoeste 7 Sudoeste 0 -- -- 94
2017-12-02 04:00:00 -5 0 Calma 6 Sudoeste 0 -- -- 90
2017-12-02 03:00:00 -3 6 Sudoeste 14 Sudoeste 0 -- -- 92
2017-12-02 02:00:00 -3.6 3 Sur 8 Sudoeste 0 -- -- 89
2017-12-02 01:00:00 -4.4 2 Este 4 Sudoeste 0 -- -- 88
2017-12-02 00:00:00 -2.5 4 Sudoeste 8 Sur 0 -- -- 85
2017-12-01 23:00:00 -1.7 5 Noroeste 16 Norte 0 -- -- 82
2017-12-01 22:00:00 -1.6 4 Noroeste 12 Noroeste 0 -- -- 77
2017-12-01 21:00:00 -2.1 3 Oeste 12 Oeste 0 -- -- 81
2017-12-01 20:00:00 -1.5 6 Oeste 12 Sudoeste 0 -- -- 77
2017-12-01 19:00:00 -0.9 8 Norte 14 Norte 0 -- -- 79
2017-12-01 18:00:00 -0.1 12 Norte 33 Nordeste 0 -- -- 76
2017-12-01 17:00:00 1.2 23 Norte 41 Norte 0 -- -- 72
2017-12-01 16:00:00 2.1 23 Norte 50 Norte 0 -- -- 68
2017-12-01 15:00:00 1.1 17 Nordeste 45 Nordeste 0 -- -- 88
2017-12-01 14:00:00 2.9 22 Norte 36 Norte 0 -- -- 82
2017-12-01 13:00:00 2.7 12 Norte 31 Norte 0.6 -- -- 93
2017-12-01 12:00:00 1.6 7 Norte 14 Nordeste 0.4 -- -- 94
2017-12-01 11:00:00 1.7 6 Norte 30 Noroeste 1 -- -- 95
2017-12-01 10:00:00 1.8 20 Noroeste 36 Oeste 0 -- -- 92
2017-12-01 09:00:00 0 7 Oeste 12 Oeste 0 -- -- 94
2017-12-01 08:00:00 -0.4 5 Oeste 11 Oeste 0 -- -- 94
2017-12-01 07:00:00 -1.2 2 Oeste 9 Sudoeste 0 -- -- 92
2017-12-01 06:00:00 -0.3 3 Sudoeste 10 Oeste 0 -- -- 91
2017-12-01 05:00:00 -0.5 5 Sudoeste 12 Oeste 0 -- -- 92
2017-12-01 04:00:00 -1.2 4 Sudoeste 8 Sudoeste 0 -- -- 90
2017-12-01 03:00:00 -0.9 4 Sur 8 Sudoeste 0 -- -- 86
2017-12-01 02:00:00 -0.6 3 Sur 7 Sur 0 -- -- 87
2017-12-01 01:00:00 -1 3 Noroeste 9 Oeste 0 -- -- 91
2017-12-01 00:00:00 -2 0 Calma 14 Noroeste 0 -- -- 84
2017-11-30 23:00:00 -1.6 4 Sudoeste 8 Oeste 0 -- -- 85
2017-11-30 22:00:00 -2.2 6 Oeste 8 Oeste 0 -- -- 87
2017-11-30 21:00:00 -2.2 0 Calma 11 Noroeste 0 -- -- 81
2017-11-30 20:00:00 -2.6 0 Calma 5 Este 0 -- -- 80
2017-11-30 19:00:00 -0.7 0 Calma 7 Oeste 0 -- -- 71
2017-11-30 18:00:00 3 3 Norte 25 Norte 0 -- -- 57
2017-11-30 17:00:00 5.2 15 Norte 23 Norte 0 -- -- 48
2017-11-30 16:00:00 5.8 16 Norte 26 Norte 0 -- -- 47
2017-11-30 15:00:00 6.5 5 Norte 19 Norte 0 -- -- 52
2017-11-30 14:00:00 6.9 12 Noroeste 22 Norte 0 -- -- 49
2017-11-30 13:00:00 5.4 15 Norte 26 Norte 0 -- -- 55
2017-11-30 12:00:00 4.6 8 Norte 21 Norte 0 -- -- 61
2017-11-30 11:00:00 1.8 2 Norte 4 Norte 0 -- -- 75
2017-11-30 10:00:00 -2.5 2 Sur 4 Sudeste 0 -- -- 92
2017-11-30 09:00:00 -6.8 0 Calma 5 Este 0 -- -- 94
2017-11-30 08:00:00 -7.2 0 Calma 2 Sudeste 0 -- -- 92
2017-11-30 07:00:00 -6.2 0 Calma 5 Nordeste 0 -- -- 91
2017-11-30 06:00:00 -7.1 3 Este 6 Nordeste 0 -- -- 89
2017-11-30 05:00:00 -6.4 4 Nordeste 6 Este 0 -- -- 89
2017-11-30 04:00:00 -4.3 3 Nordeste 6 Este 0 -- -- 85
2017-11-30 03:00:00 -2.5 5 Nordeste 13 Nordeste 0 -- -- 86
2017-11-30 02:00:00 -4.4 5 Este 7 Este 0 -- -- 88
2017-11-30 01:00:00 -3.2 3 Este 10 Nordeste 0 -- -- 83
2017-11-30 00:00:00 -3.1 7 Este 13 Nordeste 0 -- -- 84
2017-11-29 23:00:00 -3.8 4 Nordeste 6 Norte 0 -- -- 85
2017-11-29 22:00:00 -2.7 4 Nordeste 8 Este 0 -- -- 86
2017-11-29 21:00:00 -1.6 5 Este 13 Nordeste 0 -- -- 77
2017-11-29 20:00:00 0.4 9 Nordeste 16 Norte 0 -- -- 75
2017-11-29 19:00:00 0.9 10 Nordeste 13 Norte 0 -- -- 71
2017-11-29 18:00:00 2.7 9 Norte 29 Nordeste 0 -- -- 63
2017-11-29 17:00:00 5 14 Norte 29 Norte 0 -- -- 52
2017-11-29 16:00:00 5.7 19 Norte 32 Norte 0 -- -- 49
2017-11-29 15:00:00 6.2 18 Norte 31 Norte 0 -- -- 53
2017-11-29 14:00:00 5.8 12 Norte 32 Norte 0 -- -- 54
2017-11-29 13:00:00 5.8 19 Norte 32 Norte 0 -- -- 59
2017-11-29 12:00:00 4.6 5 Nordeste 10 Norte 0 -- -- 71
2017-11-29 11:00:00 1.7 0 Calma 3 Nordeste 0.2 -- -- 88
2017-11-29 10:00:00 -1.8 0 Calma 5 Nordeste 0 -- -- 95
2017-11-29 09:00:00 -5.4 0 Calma 7 Este 0 -- -- 95
2017-11-29 08:00:00 -5.8 2 Este 3 Oeste 0 -- -- 93
2017-11-29 07:00:00 -4.9 0 Calma 5 Este 0 -- -- 94
2017-11-29 06:00:00 -4.9 2 Sudeste 9 Noroeste 0 -- -- 95
2017-11-29 05:00:00 -5 0 Calma 5 Este 0 -- -- 93
2017-11-29 04:00:00 -4 2 Este 4 Este 0 -- -- 95
2017-11-29 03:00:00 -4.3 0 Calma 5 Este 0 -- -- 94
2017-11-29 02:00:00 -4 3 Este 5 Este 0 -- -- 94
2017-11-29 01:00:00 -4 5 Este 8 Este 0 -- -- 94
2017-11-29 00:00:00 -4 0 Calma 9 Este 0 -- -- 94
2017-11-28 23:00:00 -3.8 4 Este 5 Nordeste 0 -- -- 93
2017-11-28 22:00:00 -2.6 2 Sudoeste 6 Este 0 -- -- 93
2017-11-28 21:00:00 -2.4 3 Nordeste 8 Este 0 -- -- 91
2017-11-28 20:00:00 -0.1 3 Nordeste 10 Este 0 -- -- 91
2017-11-28 19:00:00 0.4 7 Este 10 Este 0 -- -- 89
2017-11-28 18:00:00 3.2 0 Calma 11 Sur 0 -- -- 76
2017-11-28 17:00:00 6 5 Sur 12 Sur 0 -- -- 71
2017-11-28 16:00:00 6.6 9 Sur 14 Sur 0 -- -- 70
2017-11-28 15:00:00 6.5 8 Sudoeste 15 Sudoeste 0 -- -- 64
2017-11-28 14:00:00 5.1 8 Oeste 13 Oeste 0 -- -- 67
2017-11-28 13:00:00 3.8 6 Sudoeste 13 Sudoeste 0 -- -- 77
2017-11-28 12:00:00 2.5 5 Sudoeste 9 Sudoeste 0 -- -- 84
2017-11-28 11:00:00 1.1 0 Calma 4 Sudoeste 0 -- -- 92
2017-11-28 10:00:00 -2.8 0 Calma 5 Nordeste 0 -- -- 96
2017-11-28 09:00:00 -5.9 3 Nordeste 6 Este 0 -- -- 96
2017-11-28 08:00:00 -5.4 0 Calma 3 Este 0 -- -- 94
2017-11-28 07:00:00 -5.9 0 Calma 5 Este 0 -- -- 94
2017-11-28 06:00:00 -5.3 0 Calma 8 Nordeste 0 -- -- 92
2017-11-28 05:00:00 -5.9 4 Nordeste 6 Nordeste 0 -- -- 92
2017-11-28 04:00:00 -4.8 3 Este 7 Nordeste 0 -- -- 94
2017-11-28 03:00:00 -4.8 0 Calma 6 Nordeste 0 -- -- 91
2017-11-28 02:00:00 -4.1 4 Nordeste 6 Este 0 -- -- 94
2017-11-28 01:00:00 -4.1 0 Calma 5 Nordeste 0 -- -- 92
2017-11-28 00:00:00 -3.8 0 Calma 4 Este 0 -- -- 93
2017-11-27 23:00:00 -3.6 2 Este 4 Nordeste 0 -- -- 94
2017-11-27 22:00:00 -3.5 2 Sudeste 6 Este 0 -- -- 92
2017-11-27 21:00:00 -2.9 2 Nordeste 4 Nordeste 0 -- -- 91
2017-11-27 20:00:00 -1.7 0 Calma 5 Sur 0 -- -- 87
2017-11-27 19:00:00 0.2 0 Calma 10 Sudoeste 0 -- -- 82
2017-11-27 18:00:00 4.6 6 Sudoeste 10 Sudoeste 0 -- -- 69
2017-11-27 17:00:00 7.5 6 Sudoeste 13 Sudoeste 0 -- -- 60
2017-11-27 16:00:00 8.3 8 Sudoeste 15 Oeste 0 -- -- 56
2017-11-27 15:00:00 8.4 5 Sudoeste 16 Noroeste 0 -- -- 53
2017-11-27 14:00:00 7.4 6 Sudoeste 11 Sudoeste 0 -- -- 60
2017-11-27 13:00:00 6.1 4 Sudoeste 9 Sudoeste 0 -- -- 69
2017-11-27 12:00:00 3.9 2 Nordeste 5 Norte 0 -- -- 75
2017-11-27 11:00:00 1.9 0 Calma 5 Nordeste 0.2 -- -- 86
2017-11-27 10:00:00 -1.4 0 Calma 4 Nordeste 0 -- -- 95
2017-11-27 09:00:00 -5.3 3 Este 5 Nordeste 0 -- -- 94
2017-11-27 08:00:00 -5.9 2 Nordeste 6 Nordeste 0 -- -- 92
2017-11-27 07:00:00 -5 3 Nordeste 6 Nordeste 0 -- -- 93
2017-11-27 06:00:00 -5.3 3 Este 6 Nordeste 0 -- -- 93
2017-11-27 05:00:00 -4.9 0 Calma 6 Nordeste 0 -- -- 92
2017-11-27 04:00:00 -4.4 2 Nordeste 8 Nordeste 0 -- -- 93
2017-11-27 03:00:00 -4.6 3 Nordeste 6 Nordeste 0 -- -- 93
2017-11-27 02:00:00 -4.4 0 Calma 5 Nordeste 0 -- -- 93
2017-11-27 01:00:00 -4.1 3 Nordeste 9 Este 0 -- -- 91
2017-11-27 00:00:00 -3.9 3 Nordeste 5 Nordeste 0 -- -- 92
2017-11-26 23:00:00 -2.8 2 Nordeste 9 Nordeste 0 -- -- 90
2017-11-26 22:00:00 -3.3 4 Este 6 Nordeste 0 -- -- 89
2017-11-26 21:00:00 -2.2 4 Este 7 Este 0 -- -- 91
2017-11-26 20:00:00 -1.2 5 Nordeste 8 Este 0 -- -- 90
2017-11-26 19:00:00 -0.2 3 Este 6 Oeste 0 -- -- 81
2017-11-26 18:00:00 4.8 4 Oeste 14 Oeste 0 -- -- 65
2017-11-26 17:00:00 7.6 7 Oeste 11 Oeste 0 -- -- 53
2017-11-26 16:00:00 8.2 4 Sur 14 Sudoeste 0 -- -- 50
2017-11-26 15:00:00 7.6 7 Sudoeste 12 Oeste 0 -- -- 53
2017-11-26 14:00:00 6.9 5 Oeste 11 Noroeste 0 -- -- 58
2017-11-26 13:00:00 6.1 4 Oeste 13 Oeste 0 -- -- 61
2017-11-26 12:00:00 3.8 3 Norte 5 Noroeste 0 -- -- 76
2017-11-26 11:00:00 0.9 0 Calma 4 Nordeste 0 -- -- 90
2017-11-26 10:00:00 -2.1 3 Nordeste 6 Nordeste 0 -- -- 94
2017-11-26 09:00:00 -6.3 2 Nordeste 4 Este 0 -- -- 93
2017-11-26 08:00:00 -5.9 0 Calma 5 Este 0 -- -- 93
2017-11-26 07:00:00 -5.7 3 Este 4 Nordeste 0 -- -- 94
2017-11-26 06:00:00 -5.5 0 Calma 4 Este 0 -- -- 92
2017-11-26 05:00:00 -5.2 2 Este 5 Nordeste 0 -- -- 91
2017-11-26 04:00:00 -4.5 0 Calma 4 Este 0 -- -- 93
2017-11-26 03:00:00 -4.1 4 Este 5 Este 0 -- -- 92
2017-11-26 02:00:00 -3.5 0 Calma 3 Oeste 0 -- -- 93
2017-11-26 01:00:00 -2.7 0 Calma 6 Sudeste 0 -- -- 91
2017-11-26 00:00:00 -2.5 3 Este 7 Nordeste 0 -- -- 91
2017-11-25 23:00:00 -1.7 2 Sudeste 9 Este 0 -- -- 91
2017-11-25 22:00:00 -0.3 2 Este 8 Este 0 -- -- 87
2017-11-25 21:00:00 1.5 4 Este 6 Sudeste 0 -- -- 82
2017-11-25 20:00:00 1.8 3 Sudeste 12 Nordeste 0 -- -- 81
2017-11-25 19:00:00 5.2 9 Nordeste 19 Nordeste 0 -- -- 67
2017-11-25 18:00:00 6.6 9 Norte 23 Nordeste 0 -- -- 63
2017-11-25 17:00:00 8.3 17 Norte 25 Norte 0 -- -- 58
2017-11-25 16:00:00 9.7 11 Norte 20 Norte 0 -- -- 55
2017-11-25 15:00:00 10.4 8 Norte 22 Nordeste 0 -- -- 56
2017-11-25 14:00:00 9.9 8 Nordeste 19 Norte 0 -- -- 58
2017-11-25 13:00:00 9.2 12 Nordeste 22 Nordeste 0 -- -- 61
2017-11-25 12:00:00 9.2 9 Nordeste 21 Norte 0 -- -- 64
2017-11-25 11:00:00 7.8 3 Nordeste 9 Nordeste 0 -- -- 77
2017-11-25 10:00:00 5.8 3 Nordeste 12 Este 0 -- -- 89
2017-11-25 09:00:00 2.2 4 Nordeste 6 Nordeste 0 -- -- 95
2017-11-25 08:00:00 3.2 0 Calma 10 Nordeste 0 -- -- 91
2017-11-25 07:00:00 5.6 6 Nordeste 10 Nordeste 0 -- -- 90
2017-11-25 06:00:00 5.2 4 Nordeste 7 Nordeste 0 -- -- 96
2017-11-25 05:00:00 6.1 0 Calma 4 Noroeste 0 -- -- 93
2017-11-25 04:00:00 7.3 4 Este 7 Nordeste 0.2 -- -- 92
2017-11-25 03:00:00 7.9 5 Norte 11 Norte 0 -- -- 90
2017-11-25 02:00:00 8.7 5 Norte 10 Norte 0.2 -- -- 95
2017-11-25 01:00:00 9.2 0 Calma 5 Oeste 0.6 -- -- 97
2017-11-25 00:00:00 9.3 0 Calma 7 Noroeste 2.6 -- -- 97
2017-11-24 23:00:00 9.5 0 Calma 4 Sudoeste 1.8 -- -- 96
2017-11-24 22:00:00 9.6 0 Calma 5 Sudoeste 1.4 -- -- 95
2017-11-24 21:00:00 9.7 3 Sudoeste 9 Sudoeste 0.6 -- -- 94
2017-11-24 20:00:00 9.9 6 Sudoeste 12 Sudoeste 0 -- -- 92
2017-11-24 19:00:00 10 5 Sudoeste 14 Sudoeste 0 -- -- 92
2017-11-24 18:00:00 10.3 5 Sur 20 Sudoeste 0 -- -- 90
2017-11-24 17:00:00 10.9 9 Sudoeste 21 Sudoeste 0 -- -- 92
2017-11-24 16:00:00 10.6 9 Sudoeste 22 Sudoeste 0 -- -- 95
2017-11-24 15:00:00 10.5 9 Sudoeste 19 Sudoeste 0.6 -- -- 96
2017-11-24 14:00:00 10.2 5 Sudoeste 12 Oeste 0.2 -- -- 97
2017-11-24 13:00:00 9.8 8 Oeste 15 Sudoeste 0 -- -- 97
2017-11-24 12:00:00 9.2 3 Sudoeste 6 Sudoeste 0 -- -- 97
2017-11-24 11:00:00 8.9 2 Oeste 4 Oeste 0.4 -- -- 96
2017-11-24 10:00:00 8.5 2 Sudeste 9 Este 0.6 -- -- 96
2017-11-24 09:00:00 8.2 3 Este 9 Este 0.2 -- -- 96
2017-11-24 08:00:00 8.1 4 Sur 11 Sudeste 0.2 -- -- 96
2017-11-24 07:00:00 8 6 Sur 12 Sudeste 0.6 -- -- 95
2017-11-24 06:00:00 7.9 4 Sur 9 Sudeste 2.8 -- -- 95
2017-11-24 05:00:00 8 2 Norte 10 Sur 1.4 -- -- 93
2017-11-24 04:00:00 7.9 4 Sur 9 Sur 0 -- -- 92
2017-11-24 03:00:00 7.7 4 Sudeste 14 Sur 0.6 -- -- 88
2017-11-24 02:00:00 9.3 13 Sudoeste 36 Sudoeste 0.2 -- -- 78
2017-11-24 01:00:00 10.4 14 Sur 21 Sur 0 -- -- 61
2017-11-24 00:00:00 9.9 7 Sur 15 Sur 0 -- -- 70
2017-11-23 23:00:00 10.2 0 Calma 10 Sur 0 -- -- 75
2017-11-23 22:00:00 11 6 Sudoeste 23 Sudoeste 0 -- -- 75
2017-11-23 21:00:00 11.6 16 Sudoeste 31 Sudoeste 0 -- -- 74
2017-11-23 20:00:00 11.8 14 Sudoeste 31 Sudoeste 0 -- -- 74
2017-11-23 19:00:00 11.8 14 Sudoeste 32 Sudoeste 0 -- -- 75
2017-11-23 18:00:00 12 16 Sudoeste 32 Sudoeste 0 -- -- 78
2017-11-23 17:00:00 12.7 15 Sudoeste 30 Sudoeste 0 -- -- 77
2017-11-23 16:00:00 12.1 13 Sudoeste 29 Sudoeste 0 -- -- 84
2017-11-23 15:00:00 13.2 16 Sudoeste 31 Sudoeste 0 -- -- 77
2017-11-23 14:00:00 13.2 13 Sudoeste 28 Sudoeste 0 -- -- 74
2017-11-23 13:00:00 13.5 13 Sudoeste 27 Sudoeste 0 -- -- 69
2017-11-23 12:00:00 11.5 10 Oeste 22 Oeste 0 -- -- 76
2017-11-23 11:00:00 9.9 0 Calma 9 Sudoeste 0 -- -- 78
2017-11-23 10:00:00 9.2 4 Sudoeste 14 Sudoeste 0 -- -- 79
2017-11-23 09:00:00 9 8 Sudoeste 19 Sudoeste 0 -- -- 77
2017-11-23 08:00:00 8.8 8 Sudoeste 25 Sudoeste 0 -- -- 74
2017-11-23 07:00:00 8.9 13 Sudoeste 28 Sur 0 -- -- 69
2017-11-23 06:00:00 9.3 15 Sur 24 Sudoeste 0 -- -- 62
2017-11-23 05:00:00 9 6 Sur 14 Sudeste 0 -- -- 60
2017-11-23 04:00:00 8.9 2 Sur 9 Sur 0 -- -- 60
2017-11-23 03:00:00 9 3 Sur 21 Sudoeste 0 -- -- 59
2017-11-23 02:00:00 8.7 13 Sudoeste 25 Sudoeste 0 -- -- 59
2017-11-23 01:00:00 8.5 4 Este 30 Sur 0 -- -- 57
2017-11-23 00:00:00 8.9 10 Sur 22 Sudoeste 0 -- -- 55
2017-11-22 23:00:00 9.6 10 Sudoeste 24 Sudoeste 0 -- -- 52
2017-11-22 22:00:00 10.3 6 Sudoeste 24 Sur 0 -- -- 50
2017-11-22 21:00:00 11.3 14 Sudoeste 39 Sudoeste 0 -- -- 44
2017-11-22 20:00:00 11.8 18 Sudoeste 35 Sur 0 -- -- 43
2017-11-22 19:00:00 11.5 14 Sur 23 Sur 0 -- -- 46
2017-11-22 18:00:00 10.8 6 Sur 13 Sur 0 -- -- 49
2017-11-22 17:00:00 12.2 6 Sudoeste 17 Sur 0 -- -- 45
2017-11-22 16:00:00 13.5 12 Oeste 22 Sudoeste 0 -- -- 41
2017-11-22 15:00:00 12.4 9 Sudoeste 25 Sudoeste 0 -- -- 43
2017-11-22 14:00:00 12.2 12 Sudoeste 23 Sur 0 -- -- 43
2017-11-22 13:00:00 11.4 12 Sudoeste 19 Sur 0 -- -- 44
2017-11-22 12:00:00 10.1 6 Sudeste 19 Sudeste 0 -- -- 47
2017-11-22 11:00:00 7.6 10 Sudeste 16 Sudeste 0 -- -- 56
2017-11-22 10:00:00 1.5 2 Norte 5 Nordeste 0 -- -- 85
2017-11-22 09:00:00 -3.2 3 Nordeste 5 Nordeste 0 -- -- 91
2017-11-22 08:00:00 -3.7 4 Nordeste 6 Nordeste 0 -- -- 89
2017-11-22 07:00:00 -3.9 3 Nordeste 8 Nordeste 0 -- -- 89
2017-11-22 06:00:00 -3.5 4 Nordeste 7 Nordeste 0 -- -- 88
2017-11-22 05:00:00 -3.8 4 Nordeste 7 Nordeste 0 -- -- 87
2017-11-22 04:00:00 -3.2 4 Nordeste 7 Nordeste 0 -- -- 88
2017-11-22 03:00:00 -3.6 4 Nordeste 6 Nordeste -- -- -- 90
2017-11-22 02:00:00 -3 3 Nordeste 9 Nordeste 0 -- -- 86
2017-11-22 01:00:00 -3.4 6 Nordeste 8 Nordeste 0 -- -- 86
2017-11-22 00:00:00 -2.7 2 Nordeste 6 Nordeste 0 -- -- 83
2017-11-21 23:00:00 -2.4 4 Nordeste 8 Este 0 -- -- 83
2017-11-21 22:00:00 -2.3 6 Este 7 Este 0 -- -- 81
2017-11-21 21:00:00 -0.5 6 Nordeste 8 Este 0 -- -- 78
2017-11-21 20:00:00 0.8 5 Este 9 Este 0 -- -- 70
2017-11-21 19:00:00 2.8 0 Calma 6 Sur 0 -- -- 62
2017-11-21 18:00:00 8.8 2 Sur 9 Sudoeste 0 -- -- 46
2017-11-21 17:00:00 13.2 6 Sudoeste 15 Sudoeste 0 -- -- 36
2017-11-21 16:00:00 14.4 9 Oeste 17 Sudoeste 0 -- -- 34
2017-11-21 15:00:00 14.4 8 Sudoeste 15 Sudoeste 0 -- -- 34
2017-11-21 14:00:00 13.8 8 Sudoeste 15 Sudoeste 0 -- -- 36
2017-11-21 13:00:00 13.1 8 Sudoeste 16 Oeste 0 -- -- 36
2017-11-21 12:00:00 10.2 3 Norte 6 Norte 0 -- -- 48
2017-11-21 11:00:00 6.1 0 Calma 4 Nordeste 0 -- -- 56
2017-11-21 10:00:00 1.6 3 Nordeste 4 Este 0 -- -- 74
2017-11-21 09:00:00 -4.5 4 Nordeste 8 Nordeste 0 -- -- 89
2017-11-21 08:00:00 -5.2 3 Nordeste 6 Nordeste 0 -- -- 86
2017-11-21 07:00:00 -4.9 4 Nordeste 6 Nordeste 0 -- -- 86
2017-11-21 06:00:00 -4.2 5 Nordeste 7 Nordeste 0 -- -- 86
2017-11-21 05:00:00 -3.8 5 Nordeste 5 Este 0 -- -- 85
2017-11-21 04:00:00 -4 5 Este 6 Nordeste 0 -- -- 82
2017-11-21 03:00:00 -3.6 4 Nordeste 5 Nordeste 0 -- -- 80
2017-11-21 02:00:00 -3.3 4 Nordeste 6 Nordeste 0 -- -- 81
2017-11-21 01:00:00 -2.7 4 Nordeste 8 Nordeste 0 -- -- 75
2017-11-21 00:00:00 -2.3 5 Nordeste 8 Nordeste 0 -- -- 76
2017-11-20 23:00:00 -1.6 3 Nordeste 7 Este 0 -- -- 70
2017-11-20 22:00:00 -0.7 4 Nordeste 8 Este 0 -- -- 67
2017-11-20 21:00:00 -0.1 4 Nordeste 7 Nordeste 0 -- -- 64
2017-11-20 20:00:00 1.6 4 Este 5 Este 0 -- -- 58
2017-11-20 19:00:00 4.3 3 Sur 5 Sur 0 -- -- 48
2017-11-20 18:00:00 9.7 3 Sudoeste 9 Sudoeste 0 -- -- 35
2017-11-20 17:00:00 14.3 7 Sudoeste 12 Sudoeste 0 -- -- 25
2017-11-20 16:00:00 14.7 8 Sudoeste 17 Oeste 0 -- -- 25
2017-11-20 15:00:00 15.2 10 Sudoeste 18 Sur 0 -- -- 23
2017-11-20 14:00:00 14.9 8 Sudoeste 16 Sudoeste 0 -- -- 23
2017-11-20 13:00:00 13.9 9 Sudoeste 14 Sudoeste 0 -- -- 25
2017-11-20 12:00:00 11.9 8 Sudoeste 13 Oeste 0 -- -- 35
2017-11-20 11:00:00 7.1 2 Norte 8 Nordeste 0 -- -- 48
2017-11-20 10:00:00 2.5 5 Nordeste 10 Nordeste 0 -- -- 63
2017-11-20 09:00:00 -3.3 5 Nordeste 8 Nordeste 0 -- -- 78
2017-11-20 08:00:00 -2.9 5 Nordeste 7 Nordeste 0 -- -- 73
2017-11-20 07:00:00 -2.6 5 Nordeste 8 Nordeste 0 -- -- 73
2017-11-20 06:00:00 -2.9 5 Nordeste 8 Nordeste 0 -- -- 72
2017-11-20 05:00:00 -3 5 Nordeste 8 Nordeste 0 -- -- 69
2017-11-20 04:00:00 -2.8 5 Nordeste 8 Nordeste 0 -- -- 71
2017-11-20 03:00:00 -2.3 5 Nordeste 10 Nordeste 0 -- -- 69
2017-11-20 02:00:00 -3 4 Nordeste 6 Nordeste 0 -- -- 71
2017-11-20 01:00:00 -2.4 4 Nordeste 9 Nordeste 0 -- -- 68
2017-11-20 00:00:00 -2.3 4 Nordeste 6 Nordeste 0 -- -- 69
2017-11-19 23:00:00 -1.6 3 Nordeste 8 Nordeste 0 -- -- 63
2017-11-19 22:00:00 -0.8 4 Nordeste 6 Norte 0 -- -- 62
2017-11-19 21:00:00 0.9 3 Nordeste 9 Nordeste 0 -- -- 55
2017-11-19 20:00:00 3 3 Nordeste 8 Este 0 -- -- 49
2017-11-19 19:00:00 3.8 0 Calma 3 Sudoeste 0 -- -- 48
2017-11-19 18:00:00 10.7 3 Sudoeste 7 Sudoeste 0 -- -- 34
2017-11-19 17:00:00 15.6 5 Sudoeste 12 Sudoeste 0 -- -- 24
2017-11-19 16:00:00 16.2 8 Sudoeste 16 Sudoeste 0 -- -- 23
2017-11-19 15:00:00 16.4 7 Sudoeste 14 Sudoeste 0 -- -- 24
2017-11-19 14:00:00 15.6 4 Sudoeste 10 Oeste 0 -- -- 25
2017-11-19 13:00:00 13.9 5 Oeste 10 Noroeste 0 -- -- 32
2017-11-19 12:00:00 11.8 3 Noroeste 5 Noroeste 0 -- -- 40
2017-11-19 11:00:00 7.2 2 Nordeste 8 Nordeste 0 -- -- 51
2017-11-19 10:00:00 2.9 3 Nordeste 9 Nordeste 0 -- -- 65
2017-11-19 09:00:00 -2.7 5 Nordeste 10 Nordeste 0 -- -- 86
2017-11-19 08:00:00 -3.9 4 Nordeste 8 Nordeste 0 -- -- 85
2017-11-19 07:00:00 -2.8 6 Nordeste 9 Nordeste 0 -- -- 82
2017-11-19 06:00:00 -2.3 5 Nordeste 10 Nordeste 0 -- -- 86
2017-11-19 05:00:00 -2.1 8 Nordeste 12 Nordeste 0 -- -- 86
2017-11-19 04:00:00 -0.4 8 Nordeste 10 Nordeste 0 -- -- 87
2017-11-19 03:00:00 -0.6 6 Nordeste 9 Nordeste 0 -- -- 86
2017-11-19 02:00:00 -1.7 6 Nordeste 9 Nordeste 0 -- -- 90
2017-11-19 01:00:00 -0.6 4 Nordeste 7 Nordeste 0 -- -- 88
2017-11-19 00:00:00 0.2 5 Nordeste 9 Nordeste 0 -- -- 85
2017-11-18 23:00:00 1.6 4 Nordeste 9 Nordeste 0 -- -- 83
2017-11-18 22:00:00 1.4 4 Nordeste 6 Norte 0 -- -- 78
2017-11-18 21:00:00 3.3 6 Nordeste 9 Nordeste 0 -- -- 71
2017-11-18 20:00:00 4.5 3 Sudoeste 9 Sudeste 0 -- -- 66
2017-11-18 19:00:00 5.3 0 Calma 6 Sur 0 -- -- 61
2017-11-18 18:00:00 11.8 3 Sudoeste 10 Oeste 0 -- -- 44
2017-11-18 17:00:00 15.8 6 Sudoeste 10 Sudoeste 0 -- -- 35
2017-11-18 16:00:00 16.3 5 Sudoeste 12 Oeste 0 -- -- 34
2017-11-18 15:00:00 15.9 6 Sudoeste 16 Oeste 0 -- -- 35
2017-11-18 14:00:00 15.1 6 Sudoeste 14 Oeste 0 -- -- 39
2017-11-18 13:00:00 13.6 5 Oeste 12 Oeste 0 -- -- 42
2017-11-18 12:00:00 11.9 4 Oeste 9 Noroeste 0 -- -- 43
2017-11-18 11:00:00 8.1 4 Nordeste 13 Nordeste 0 -- -- 59
2017-11-18 10:00:00 3.7 8 Nordeste 11 Nordeste 0 -- -- 73
2017-11-18 09:00:00 -2 5 Nordeste 8 Nordeste 0 -- -- 89
2017-11-18 08:00:00 -2.7 5 Nordeste 8 Nordeste 0 -- -- 87
2017-11-18 07:00:00 -2.8 5 Nordeste 8 Nordeste 0 -- -- 87
2017-11-18 06:00:00 -1.9 5 Nordeste 9 Nordeste 0 -- -- 85
2017-11-18 05:00:00 -1.9 5 Nordeste 8 Nordeste 0 -- -- 86
2017-11-18 04:00:00 -1.3 3 Este 7 Nordeste 0 -- -- 84
2017-11-18 03:00:00 -0.2 4 Nordeste 8 Este 0 -- -- 85
2017-11-18 02:00:00 -0.8 3 Nordeste 8 Nordeste 0 -- -- 85
2017-11-18 01:00:00 0.5 5 Nordeste 10 Nordeste 0 -- -- 80
2017-11-18 00:00:00 1.9 5 Este 11 Nordeste 0 -- -- 81
2017-11-17 23:00:00 2.3 5 Nordeste 10 Nordeste 0 -- -- 77
2017-11-17 22:00:00 2.9 4 Nordeste 9 Nordeste 0 -- -- 75
2017-11-17 21:00:00 4.7 4 Nordeste 8 Nordeste 0 -- -- 66
2017-11-17 20:00:00 5.6 3 Este 10 Sudeste 0 -- -- 61
2017-11-17 19:00:00 8.2 6 Sudeste 10 Sudeste 0 -- -- 53
2017-11-17 18:00:00 11.4 3 Sudoeste 5 Sudoeste 0 -- -- 47
2017-11-17 17:00:00 16.7 3 Sudoeste 10 Oeste 0 -- -- 35
2017-11-17 16:00:00 17.3 5 Sur 10 Sudoeste 0 -- -- 33
2017-11-17 15:00:00 17.8 4 Sur 16 Oeste 0 -- -- 32
2017-11-17 14:00:00 16.8 7 Sudoeste 15 Oeste 0 -- -- 34
2017-11-17 13:00:00 15.9 5 Oeste 12 Oeste 0 -- -- 36
2017-11-17 12:00:00 13.9 3 Noroeste 9 Nordeste 0 -- -- 44
2017-11-17 11:00:00 10 6 Nordeste 13 Nordeste 0 -- -- 54
2017-11-17 10:00:00 5.5 6 Nordeste 14 Nordeste 0 -- -- 70
2017-11-17 09:00:00 0.5 5 Nordeste 8 Nordeste 0 -- -- 86
2017-11-17 08:00:00 -0.1 5 Nordeste 9 Nordeste 0 -- -- 83
2017-11-17 07:00:00 0 5 Nordeste 9 Nordeste 0 -- -- 83
2017-11-17 06:00:00 0.6 5 Nordeste 8 Nordeste 0 -- -- 82
2017-11-17 05:00:00 0.5 5 Nordeste 8 Nordeste 0 -- -- 82
2017-11-17 04:00:00 0.3 7 Nordeste 9 Nordeste 0 -- -- 84
2017-11-17 03:00:00 0.8 6 Nordeste 9 Nordeste 0 -- -- 80
2017-11-17 02:00:00 1.1 4 Nordeste 8 Nordeste 0 -- -- 79
2017-11-17 01:00:00 1.3 6 Nordeste 9 Nordeste 0 -- -- 77
2017-11-17 00:00:00 1.5 5 Nordeste 8 Nordeste 0 -- -- 77